createdAt,value
2022-11-29T00:01:56.562Z,87.13
2022-11-29T00:04:24.591Z,87.43
2022-11-29T00:06:52.597Z,87.50
2022-11-29T00:09:21.348Z,87.33
2022-11-29T00:12:07.913Z,87.90
2022-11-29T00:14:35.924Z,88.17
2022-11-29T00:17:06.671Z,88.03
2022-11-29T00:19:36.184Z,88.17
2022-11-29T00:22:07.180Z,88.31
2022-11-29T00:24:36.285Z,88.25
2022-11-29T00:27:06.572Z,88.60
2022-11-29T00:29:34.534Z,88.66
2022-11-29T00:32:02.669Z,88.91
2022-11-29T00:34:31.713Z,88.99
2022-11-29T00:36:59.697Z,89.02
2022-11-29T00:39:27.656Z,89.12
2022-11-29T00:41:56.735Z,89.03
2022-11-29T00:44:24.800Z,89.08
2022-11-29T00:47:02.541Z,89.23
2022-11-29T00:49:32.708Z,89.36
2022-11-29T00:52:03.262Z,89.60
2022-11-29T00:54:37.230Z,89.81
2022-11-29T00:57:08.381Z,90.04
2022-11-29T00:59:39.233Z,90.31
2022-11-29T01:02:14.952Z,90.56
2022-11-29T01:04:47.214Z,90.93
2022-11-29T01:07:16.457Z,90.75
2022-11-29T01:09:45.773Z,90.63
2022-11-29T01:12:13.947Z,90.38
2022-11-29T01:14:45.148Z,90.51
2022-11-29T01:17:13.554Z,90.38
2022-11-29T01:19:45.184Z,90.66
2022-11-29T01:22:16.001Z,90.58
2022-11-29T01:24:44.272Z,90.46
2022-11-29T01:27:12.600Z,90.60
2022-11-29T01:29:40.683Z,90.62
2022-11-29T01:32:08.734Z,90.61
2022-11-29T01:34:37.447Z,90.70
2022-11-29T01:37:06.049Z,90.64
2022-11-29T01:39:34.107Z,90.54
2022-11-29T01:42:02.480Z,90.29
2022-11-29T01:44:30.801Z,90.20
2022-11-29T01:46:58.847Z,89.64
2022-11-29T01:49:32.416Z,89.79
2022-11-29T01:52:05.547Z,89.95
2022-11-29T01:54:42.490Z,90.07
2022-11-29T01:57:10.984Z,90.18
2022-11-29T01:59:44.571Z,90.04
2022-11-29T02:02:15.602Z,89.95
2022-11-29T02:04:46.485Z,90.15
2022-11-29T02:07:15.912Z,90.36
2022-11-29T02:09:44.110Z,90.14
2022-11-29T02:12:24.243Z,90.04
2022-11-29T02:15:08.442Z,90.26
2022-11-29T02:18:12.248Z,90.06
2022-11-29T02:20:55.327Z,89.83
2022-11-29T02:23:26.435Z,89.98
2022-11-29T02:26:35.627Z,90.05
2022-11-29T02:29:42.934Z,90.13
2022-11-29T02:32:42.053Z,90.22
2022-11-29T02:35:39.561Z,90.34
2022-11-29T02:38:40.115Z,90.22
2022-11-29T02:41:46.726Z,90.35
2022-11-29T02:44:38.894Z,90.50
2022-11-29T02:47:19.070Z,90.54
2022-11-29T02:49:56.124Z,90.67
2022-11-29T02:52:48.045Z,90.75
2022-11-29T02:55:34.589Z,90.84
2022-11-29T02:58:08.597Z,90.89
2022-11-29T03:05:00.457Z,91.24
2022-11-29T03:07:38.472Z,91.39
2022-11-29T03:10:09.580Z,91.42
2022-11-29T03:12:44.869Z,91.52
2022-11-29T03:15:31.734Z,91.47
2022-11-29T03:18:21.426Z,91.54
2022-11-29T03:21:03.369Z,91.81
2022-11-29T03:23:37.439Z,91.97
2022-11-29T03:26:17.659Z,91.99
2022-11-29T03:29:07.471Z,92.03
2022-11-29T03:31:47.652Z,92.24
2022-11-29T03:34:15.512Z,92.35
2022-11-29T03:37:15.934Z,92.73
2022-11-29T03:40:02.875Z,92.72
2022-11-29T03:43:06.987Z,92.67
2022-11-29T03:45:39.056Z,92.83
2022-11-29T03:48:14.724Z,92.77
2022-11-29T03:51:11.543Z,92.85
2022-11-29T03:53:48.619Z,92.76
2022-11-29T03:56:28.601Z,92.84
2022-11-29T03:59:04.835Z,92.96
2022-11-29T04:02:13.658Z,93.36
2022-11-29T04:05:06.191Z,93.42
2022-11-29T04:07:46.556Z,93.81
2022-11-29T04:10:42.964Z,94.19
2022-11-29T04:13:23.451Z,94.41
2022-11-29T04:16:24.821Z,94.25
2022-11-29T04:19:06.180Z,94.49
2022-11-29T04:21:43.967Z,94.68
2022-11-29T04:24:55.973Z,94.52
2022-11-29T04:27:36.844Z,94.81
2022-11-29T04:30:22.660Z,94.69
2022-11-29T04:33:13.722Z,95.17
2022-11-29T04:36:18.629Z,95.25
2022-11-29T04:39:31.775Z,95.16
2022-11-29T04:42:30.763Z,95.37
2022-11-29T04:45:35.278Z,95.28
2022-11-29T04:48:18.732Z,95.42
2022-11-29T04:50:49.976Z,95.14
2022-11-29T04:53:54.195Z,95.07
2022-11-29T04:56:43.522Z,94.86
2022-11-29T04:59:41.199Z,94.76
2022-11-29T05:02:28.343Z,94.60
2022-11-29T05:05:16.133Z,94.76
2022-11-29T05:07:53.822Z,94.65
2022-11-29T05:10:39.061Z,94.84
2022-11-29T05:13:19.687Z,94.67
2022-11-29T05:16:03.021Z,94.63
2022-11-29T05:18:58.300Z,94.54
2022-11-29T05:21:48.146Z,94.54
2022-11-29T05:24:25.277Z,94.53
2022-11-29T05:27:21.360Z,94.40
2022-11-29T05:30:21.415Z,94.27
2022-11-29T05:33:13.064Z,94.09
2022-11-29T05:35:54.950Z,94.03
2022-11-29T05:38:39.098Z,94.15
2022-11-29T05:41:25.920Z,94.17
2022-11-29T05:44:08.893Z,94.24
2022-11-29T05:47:01.691Z,94.22
2022-11-29T05:49:37.418Z,94.37
2022-11-29T05:52:49.649Z,94.27
2022-11-29T05:55:22.508Z,94.51
2022-11-29T05:57:57.093Z,94.64
2022-11-29T06:00:29.706Z,94.79
2022-11-29T06:03:35.687Z,94.82
2022-11-29T06:06:14.479Z,94.73
2022-11-29T06:09:34.355Z,94.77
2022-11-29T06:12:07.223Z,94.84
2022-11-29T06:15:13.833Z,95.11
2022-11-29T06:18:11.933Z,95.35
2022-11-29T06:20:47.599Z,95.23
2022-11-29T06:23:24.354Z,95.39
2022-11-29T06:26:03.476Z,95.49
2022-11-29T06:28:38.746Z,95.82
2022-11-29T06:31:15.873Z,95.58
2022-11-29T06:34:01.888Z,95.63
2022-11-29T06:36:34.051Z,95.86
2022-11-29T06:39:02.687Z,95.86
2022-11-29T06:41:30.967Z,95.94
2022-11-29T06:43:59.193Z,96.17
2022-11-29T06:46:33.321Z,96.19
2022-11-29T06:49:27.498Z,96.14
2022-11-29T06:52:01.480Z,96.35
2022-11-29T06:54:48.048Z,96.69
2022-11-29T06:57:22.128Z,96.95
2022-11-29T07:00:13.402Z,97.62
2022-11-29T07:02:47.350Z,98.08
2022-11-29T07:05:23.697Z,97.92
2022-11-29T07:07:56.369Z,97.58
2022-11-29T07:10:25.065Z,97.38
2022-11-29T07:12:53.367Z,97.35
2022-11-29T07:15:23.790Z,97.50
2022-11-29T07:18:15.272Z,97.61
2022-11-29T07:21:01.446Z,97.48
2022-11-29T07:23:57.253Z,97.47
2022-11-29T07:27:11.333Z,97.22
2022-11-29T07:30:07.177Z,97.13
2022-11-29T07:32:59.928Z,96.84
2022-11-29T07:35:42.433Z,96.74
2022-11-29T07:38:41.179Z,96.37
2022-11-29T07:41:22.940Z,95.91
2022-11-29T07:44:05.096Z,95.76
2022-11-29T07:46:33.266Z,95.75
2022-11-29T07:49:01.169Z,95.39
2022-11-29T07:51:29.156Z,95.09
2022-11-29T07:53:57.255Z,94.95
2022-11-29T07:56:25.182Z,94.43
2022-11-29T07:58:53.118Z,93.87
2022-11-29T08:01:21.077Z,93.82
2022-11-29T08:03:49.123Z,93.68
2022-11-29T08:06:24.441Z,93.39
2022-11-29T08:08:52.568Z,92.86
2022-11-29T08:11:20.499Z,92.81
2022-11-29T08:13:48.494Z,92.59
2022-11-29T08:16:18.102Z,92.60
2022-11-29T08:18:46.137Z,92.41
2022-11-29T08:21:18.074Z,91.96
2022-11-29T08:23:47.869Z,91.46
2022-11-29T08:26:17.075Z,91.07
2022-11-29T08:28:45.272Z,91.03
2022-11-29T08:31:14.180Z,90.66
2022-11-29T08:33:43.677Z,89.59
2022-11-29T08:36:14.234Z,89.13
2022-11-29T08:38:42.816Z,88.94
2022-11-29T08:41:14.226Z,89.50
2022-11-29T08:43:42.974Z,88.97
2022-11-29T08:46:15.258Z,89.23
2022-11-29T08:48:47.488Z,89.01
2022-11-29T08:51:15.640Z,88.72
2022-11-29T08:53:44.741Z,88.62
2022-11-29T08:59:06.773Z,87.81
2022-11-29T09:01:34.684Z,87.45
2022-11-29T09:04:03.233Z,87.45
2022-11-29T09:06:32.930Z,87.96
2022-11-29T09:09:01.313Z,87.57
2022-11-29T09:11:30.642Z,87.32
2022-11-29T09:14:01.221Z,86.41
2022-11-29T09:16:32.419Z,86.07
2022-11-29T09:19:00.336Z,85.53
2022-11-29T09:21:31.015Z,85.46
2022-11-29T09:24:00.935Z,85.09
2022-11-29T09:26:31.829Z,84.67
2022-11-29T09:29:01.426Z,84.56
2022-11-29T09:31:31.081Z,84.71
2022-11-29T09:33:59.558Z,84.84
2022-11-29T09:36:30.089Z,84.58
2022-11-29T09:39:02.660Z,84.10
2022-11-29T09:41:49.026Z,84.46
2022-11-29T09:44:20.332Z,84.66
2022-11-29T09:47:26.251Z,84.20
2022-11-29T09:50:19.180Z,83.53
2022-11-29T09:53:26.136Z,82.69
2022-11-29T09:56:09.967Z,82.82
2022-11-29T09:59:01.607Z,82.58
2022-11-29T10:01:43.081Z,82.35
2022-11-29T10:04:19.634Z,81.98
2022-11-29T10:07:00.324Z,82.19
2022-11-29T10:09:33.308Z,81.26
2022-11-29T10:12:14.579Z,81.00
2022-11-29T10:14:49.994Z,81.03
2022-11-29T10:17:17.902Z,80.95
2022-11-29T10:19:55.396Z,81.75
2022-11-29T10:22:35.028Z,81.40
2022-11-29T10:25:07.017Z,81.20
2022-11-29T10:27:40.943Z,80.79
2022-11-29T10:30:15.221Z,81.40
2022-11-29T10:32:46.856Z,81.76
2022-11-29T10:35:20.023Z,81.69
2022-11-29T10:38:22.264Z,82.27
2022-11-29T10:40:42.502Z,82.17
2022-11-29T10:43:10.522Z,81.49
2022-11-29T10:45:50.800Z,80.99
2022-11-29T10:48:27.046Z,81.10
2022-11-29T10:50:55.078Z,80.84
2022-11-29T10:53:26.763Z,79.63
2022-11-29T10:56:16.980Z,79.93
2022-11-29T10:59:22.026Z,80.01
2022-11-29T11:01:51.431Z,79.94
2022-11-29T11:04:30.316Z,79.47
2022-11-29T11:07:01.738Z,79.26
2022-11-29T11:09:52.045Z,79.02
2022-11-29T11:12:24.747Z,79.40
2022-11-29T11:15:15.347Z,78.65
2022-11-29T11:17:59.784Z,76.97
2022-11-29T11:20:30.702Z,77.76
2022-11-29T11:22:58.891Z,76.85
2022-11-29T11:25:39.958Z,76.28
2022-11-29T11:28:18.236Z,77.06
2022-11-29T11:31:00.304Z,77.61
2022-11-29T11:33:34.296Z,77.27
2022-11-29T11:36:02.213Z,76.39
2022-11-29T11:38:31.771Z,75.79
2022-11-29T11:41:02.844Z,75.24
2022-11-29T11:43:31.838Z,74.37
2022-11-29T11:45:59.833Z,74.23
2022-11-29T11:48:28.278Z,73.30
2022-11-29T11:50:59.083Z,72.36
2022-11-29T11:53:35.960Z,73.05
2022-11-29T11:56:14.246Z,72.44
2022-11-29T11:58:48.995Z,69.92
2022-11-29T12:01:25.512Z,68.01
2022-11-29T12:03:56.469Z,68.28
2022-11-29T12:06:29.620Z,68.19
2022-11-29T12:09:18.688Z,66.58
2022-11-29T12:11:57.118Z,65.92
2022-11-29T12:14:51.281Z,66.54
2022-11-29T12:17:49.635Z,65.69
2022-11-29T12:20:29.619Z,64.54
2022-11-29T12:23:12.671Z,64.57
2022-11-29T12:25:58.013Z,63.97
2022-11-29T12:28:32.609Z,62.18
2022-11-29T12:31:22.326Z,61.95
2022-11-29T12:34:19.600Z,62.21
2022-11-29T12:36:59.207Z,61.67
2022-11-29T12:39:42.619Z,61.38
2022-11-29T12:42:32.456Z,61.42
2022-11-29T12:45:33.362Z,61.06
2022-11-29T12:48:14.733Z,59.83
2022-11-29T12:50:54.447Z,61.28
2022-11-29T12:53:45.592Z,61.23
2022-11-29T12:56:28.748Z,60.98
2022-11-29T12:59:21.743Z,61.39
2022-11-29T13:02:17.342Z,60.81
2022-11-29T13:05:14.857Z,60.99
2022-11-29T13:07:51.353Z,61.28
2022-11-29T13:10:40.738Z,61.07
2022-11-29T13:13:37.508Z,61.56
2022-11-29T13:16:14.633Z,61.70
2022-11-29T13:18:55.072Z,61.83
2022-11-29T13:21:33.774Z,62.38
2022-11-29T13:24:10.081Z,63.11
2022-11-29T13:26:40.291Z,63.09
2022-11-29T13:29:15.505Z,63.76
2022-11-29T13:31:45.943Z,61.43
2022-11-29T13:34:27.070Z,60.55
2022-11-29T13:37:14.745Z,61.35
2022-11-29T13:40:14.427Z,60.96
2022-11-29T13:42:51.644Z,61.00
2022-11-29T13:45:24.400Z,62.04
2022-11-29T13:47:54.844Z,62.31
2022-11-29T13:50:39.113Z,62.05
2022-11-29T13:53:22.921Z,62.45
2022-11-29T13:56:01.879Z,62.83
2022-11-29T13:58:39.381Z,62.65
2022-11-29T14:01:14.520Z,63.30
2022-11-29T14:04:03.631Z,63.76
2022-11-29T14:06:33.817Z,64.08
2022-11-29T14:09:22.615Z,64.38
2022-11-29T14:12:03.869Z,64.57
2022-11-29T14:14:40.237Z,64.83
2022-11-29T14:17:40.053Z,65.21
2022-11-29T14:20:23.345Z,65.66
2022-11-29T14:23:15.703Z,65.99
2022-11-29T14:26:03.927Z,66.40
2022-11-29T14:28:33.322Z,66.62
2022-11-29T14:31:03.213Z,66.84
2022-11-29T14:33:37.587Z,67.00
2022-11-29T14:36:14.636Z,67.06
2022-11-29T14:38:56.662Z,67.19
2022-11-29T14:41:41.652Z,67.28
2022-11-29T14:44:24.338Z,67.66
2022-11-29T14:47:03.803Z,67.81
2022-11-29T14:49:40.056Z,68.08
2022-11-29T14:52:14.365Z,68.41
2022-11-29T14:55:00.777Z,68.61
2022-11-29T14:57:54.652Z,68.91
2022-11-29T15:00:34.930Z,69.12
2022-11-29T15:03:28.701Z,69.41
2022-11-29T15:06:06.376Z,69.53
2022-11-29T15:08:35.023Z,69.60
2022-11-29T15:11:13.985Z,69.68
2022-11-29T15:13:59.154Z,69.83
2022-11-29T15:16:47.771Z,69.95
2022-11-29T15:19:42.628Z,69.98
2022-11-29T15:22:18.170Z,70.25
2022-11-29T15:24:54.343Z,70.35
2022-11-29T15:27:23.459Z,70.46
2022-11-29T15:29:52.819Z,70.43
2022-11-29T15:32:32.815Z,70.53
2022-11-29T15:35:01.537Z,70.65
2022-11-29T15:37:32.478Z,70.72
2022-11-29T15:40:27.689Z,70.83
2022-11-29T15:43:09.744Z,71.03
2022-11-29T15:45:39.788Z,71.08
2022-11-29T15:48:11.475Z,71.14
2022-11-29T15:50:44.478Z,71.23
2022-11-29T15:53:20.330Z,71.39
2022-11-29T15:55:52.182Z,71.53
2022-11-29T15:58:20.949Z,71.57
2022-11-29T16:00:51.656Z,71.58
2022-11-29T16:03:26.964Z,71.78
2022-11-29T16:06:18.440Z,71.89
2022-11-29T16:08:47.916Z,71.85
2022-11-29T16:11:18.180Z,72.04
2022-11-29T16:14:13.479Z,71.98
2022-11-29T16:16:44.230Z,71.95
2022-11-29T16:19:25.291Z,72.23
2022-11-29T16:22:04.246Z,72.38
2022-11-29T16:24:34.247Z,72.53
2022-11-29T16:27:03.699Z,72.59
2022-11-29T16:29:45.266Z,72.81
2022-11-29T16:32:42.896Z,72.94
2022-11-29T16:35:19.048Z,73.13
2022-11-29T16:37:47.716Z,73.31
2022-11-29T16:40:27.438Z,73.40
2022-11-29T16:43:04.595Z,73.49
2022-11-29T16:45:43.824Z,73.50
2022-11-29T16:48:25.586Z,73.74
2022-11-29T16:51:14.906Z,73.77
2022-11-29T16:53:52.886Z,73.95
2022-11-29T16:56:24.471Z,74.04
2022-11-29T16:59:25.482Z,74.28
2022-11-29T17:01:43.226Z,74.39
2022-11-29T17:04:11.698Z,74.46
2022-11-29T17:06:54.125Z,74.39
2022-11-29T17:09:27.964Z,74.68
2022-11-29T17:11:56.220Z,74.79
2022-11-29T17:14:24.163Z,74.90
2022-11-29T17:16:52.368Z,74.86
2022-11-29T17:19:23.914Z,75.06
2022-11-29T17:21:52.927Z,75.27
2022-11-29T17:24:22.904Z,75.53
2022-11-29T17:26:51.130Z,75.71
2022-11-29T17:29:19.370Z,76.08
2022-11-29T17:31:50.471Z,76.03
2022-11-29T17:34:19.258Z,75.93
2022-11-29T17:36:47.417Z,76.20
2022-11-29T17:39:19.467Z,76.34
2022-11-29T17:41:47.699Z,76.51
2022-11-29T17:44:15.747Z,76.63
2022-11-29T17:46:43.719Z,76.62
2022-11-29T17:49:11.755Z,76.88
2022-11-29T17:51:51.894Z,77.04
2022-11-29T17:54:21.648Z,76.88
2022-11-29T17:56:50.356Z,76.84
2022-11-29T17:59:19.071Z,76.60
2022-11-29T18:01:47.639Z,76.44
2022-11-29T18:04:15.817Z,76.92
2022-11-29T18:06:45.858Z,76.88
2022-11-29T18:09:13.762Z,77.02
2022-11-29T18:11:49.059Z,77.22
2022-11-29T18:14:23.599Z,77.24
2022-11-29T18:16:52.459Z,77.40
2022-11-29T18:19:22.264Z,77.67
2022-11-29T18:21:51.032Z,77.54
2022-11-29T18:24:19.543Z,77.56
2022-11-29T18:26:47.539Z,77.39
2022-11-29T18:29:15.781Z,77.20
2022-11-29T18:31:46.028Z,77.19
2022-11-29T18:34:14.777Z,77.09
2022-11-29T18:36:48.479Z,76.97
2022-11-29T18:39:19.110Z,77.04
2022-11-29T18:41:50.190Z,77.15
2022-11-29T18:44:21.869Z,77.16
2022-11-29T18:46:50.068Z,77.39
2022-11-29T18:49:18.665Z,77.44
2022-11-29T18:51:47.946Z,77.47
2022-11-29T18:54:18.177Z,77.57
2022-11-29T18:56:46.495Z,77.57
2022-11-29T18:59:17.378Z,77.83
2022-11-29T19:01:47.902Z,77.85
2022-11-29T19:04:19.188Z,77.90
2022-11-29T19:06:47.766Z,78.80
2022-11-29T19:09:21.076Z,79.12
2022-11-29T19:11:50.180Z,79.05
2022-11-29T19:14:19.172Z,78.75
2022-11-29T19:16:49.403Z,78.87
2022-11-29T19:19:18.958Z,78.83
2022-11-29T19:21:47.407Z,78.80
2022-11-29T19:24:18.409Z,78.94
2022-11-29T19:26:49.749Z,79.01
2022-11-29T19:29:18.068Z,79.00
2022-11-29T19:31:48.264Z,79.09
2022-11-29T19:34:16.436Z,79.13
2022-11-29T19:36:45.331Z,79.35
2022-11-29T19:39:15.573Z,79.43
2022-11-29T19:41:45.846Z,79.49
2022-11-29T19:44:14.477Z,79.74
2022-11-29T19:46:46.008Z,80.19
2022-11-29T19:49:14.151Z,80.23
2022-11-29T19:51:43.165Z,80.35
2022-11-29T19:54:12.155Z,80.47
2022-11-29T19:56:40.733Z,80.70
2022-11-29T19:59:09.227Z,80.84
2022-11-29T20:01:42.549Z,80.83
2022-11-29T20:04:13.473Z,80.81
2022-11-29T20:06:41.697Z,80.87
2022-11-29T20:09:11.992Z,80.92
2022-11-29T20:11:40.077Z,80.90
2022-11-29T20:14:10.419Z,81.30
2022-11-29T20:16:39.090Z,81.40
2022-11-29T20:19:15.791Z,81.60
2022-11-29T20:21:48.966Z,82.65
2022-11-29T20:24:19.449Z,82.98
2022-11-29T20:26:48.498Z,82.54
2022-11-29T20:29:17.172Z,82.42
2022-11-29T20:31:50.031Z,82.48
2022-11-29T20:34:19.914Z,82.43
2022-11-29T20:37:12.484Z,82.28
2022-11-29T20:39:59.271Z,82.18
2022-11-29T20:43:00.929Z,82.16
2022-11-29T20:45:29.338Z,82.56
2022-11-29T20:48:36.091Z,82.63
2022-11-29T20:51:04.660Z,82.88
2022-11-29T20:53:35.720Z,83.08
2022-11-29T20:56:06.005Z,83.26
2022-11-29T20:58:34.547Z,83.61
2022-11-29T21:01:04.075Z,83.86
2022-11-29T21:03:34.379Z,83.83
2022-11-29T21:06:06.600Z,83.96
2022-11-29T21:08:37.551Z,83.70
2022-11-29T21:11:10.180Z,83.71
2022-11-29T21:13:38.754Z,83.72
2022-11-29T21:16:09.950Z,83.80
2022-11-29T21:18:38.391Z,83.71
2022-11-29T21:21:21.849Z,83.77
2022-11-29T21:24:01.260Z,83.93
2022-11-29T21:26:34.950Z,84.09
2022-11-29T21:29:09.790Z,83.87
2022-11-29T21:31:38.234Z,83.72
2022-11-29T21:34:06.320Z,83.73
2022-11-29T21:36:35.991Z,83.51
2022-11-29T21:39:06.140Z,83.35
2022-11-29T21:41:34.572Z,83.49
2022-11-29T21:44:07.544Z,83.49
2022-11-29T21:46:36.476Z,83.64
2022-11-29T21:49:05.189Z,83.47
2022-11-29T21:51:33.975Z,83.28
2022-11-29T21:54:02.768Z,83.04
2022-11-29T21:56:30.789Z,83.06
2022-11-29T21:58:58.745Z,83.18
2022-11-29T22:01:27.635Z,82.97
2022-11-29T22:03:55.664Z,83.04
2022-11-29T22:06:28.320Z,83.21
2022-11-29T22:08:57.066Z,83.30
2022-11-29T22:11:31.974Z,83.27
2022-11-29T22:14:15.311Z,83.10
2022-11-29T22:16:57.396Z,83.11
2022-11-29T22:19:31.166Z,83.16
2022-11-29T22:22:05.769Z,83.26
2022-11-29T22:24:39.513Z,83.61
2022-11-29T22:27:07.579Z,83.99
2022-11-29T22:29:36.680Z,84.10
2022-11-29T22:32:05.074Z,84.11
2022-11-29T22:34:34.673Z,84.01
2022-11-29T22:37:03.304Z,84.04
2022-11-29T22:39:31.276Z,83.95
2022-11-29T22:41:59.225Z,84.10
2022-11-29T22:44:27.264Z,84.24
2022-11-29T22:46:55.354Z,84.36
2022-11-29T22:49:26.117Z,84.48
2022-11-29T22:51:55.083Z,84.54
2022-11-29T22:54:23.268Z,84.39
2022-11-29T22:56:52.458Z,84.45
2022-11-29T22:59:20.700Z,84.53
2022-11-29T23:01:50.811Z,84.58
2022-11-29T23:04:18.928Z,84.59
2022-11-29T23:06:47.120Z,84.65
2022-11-29T23:09:20.018Z,84.69
2022-11-29T23:11:53.676Z,84.74
2022-11-29T23:14:23.052Z,84.71
2022-11-29T23:16:51.766Z,84.89
2022-11-29T23:19:20.462Z,85.02
2022-11-29T23:21:48.517Z,85.33
2022-11-29T23:24:16.672Z,85.42
2022-11-29T23:26:47.058Z,85.39
2022-11-29T23:29:18.371Z,85.29
2022-11-29T23:31:47.343Z,85.43
2022-11-29T23:34:16.498Z,85.70
2022-11-29T23:36:48.402Z,85.81
2022-11-29T23:39:21.115Z,85.70
2022-11-29T23:41:49.107Z,85.75
2022-11-29T23:44:17.139Z,85.97
2022-11-29T23:46:45.209Z,85.93
2022-11-29T23:49:13.256Z,86.16
2022-11-29T23:51:41.289Z,86.28
2022-11-29T23:54:09.445Z,86.68
2022-11-29T23:56:37.480Z,86.90
2022-11-29T23:59:05.783Z,86.95
